Greenbrier, Tennessee
Current Conditions -  °F | °C
As of 5:55 AM on Sunday 23 Nov 2014 (Local Time) from KM91 Reporting Station
Overcast Overcast  
Wind Chill: 55°   Ceiling: 4400
Heat Index: 55°   Visibility: 10mi
Dew Point: 43°   Wind: 6mph
Humidity: 63%   Direction: 140°SE
Pressure: 29.9"   Gusts: NA
Location:  36.43°N, 86.8°W
Report Text: KM91 231155Z AUTO 14005KT 10SM OVC044 13/06 A2990 RMK
Loading
Personal Weather Stations






























Interactive Weather Map New forecast layout! Learn more

10-Day Weather Forecast

Advertisements
Track Severe Weather on mobile